Briefing drone pour Genas

Rechercher une autre localisation

Conditions de vol :


Nous sommes le : Mardi 24 mai 2022
Il est 11:41 UTC (13:41 LT)

Lever de soleil : 03:33 UTC (05:33 LT)
Coucher de soleil : 19:40 UTC (21:40 LT)

Météo

L'essentiel des conditions de vol

VIGILANCE MÉTÉO FRANCE - Rhône (69)
Pas de vigilances particulieres
CARTES DES FRONTS
METAR de LFLL
LFLL 241130Z 34006KT 280V050 9999 SCT051 19/07 Q1011 NOSIG

Date d'émission: 24/05/2022
Heure d'émission: 11:30 UTC
Vent: 340° pour 6 KT (11 km/h) Variable
Visibilité horizontale: > 10 km
Plafond :
- Nuages épars à 5100ft (1554m)
Température: 19 °C
Point de rosée: 7 °C
Humidité: 46%
Pression (QNH): 1011 hPa
Conditions: Pas de changement dans les 2 heures (NOSIG)
TAF de LFLL
LFLL 241100Z 2412/2518 36008KT 9999 SCT050= LFRI 241100Z 2412/2512 25007KT 9999 BKN030 TEMPO 2412/2417 4000 -SHRA BKN020CB BECMG 2422/2424 VRB03KT BECMG 2510/2512 27010KT

Conditions prévues :

Heure d'émission : Bulletin éffectué le 24 à 12:00 UTC
Prévision : Valide du 24 a 12:00 UTC au 25 a 12:00 UTC
Vent : 250° pour 7 KT (13 km/h)
Visibilité : > 10 km
Nuages : Nuages eparts à 5000ft (1524 m)
à 0ft (0 m)
à 0ft (0 m)
Nuages morcelés à 3000ft (914 m)

Temporairement :

Prévision : Valide du 24 a 12:00 UTC au 24 a 17:00 UTC
Visibilité : 4000 m
Conditions : Averses de Pluie(faible)
Nuages : Nuages morcelés à 2000ft (610 m)

Devenant :

Prévision : Valide du 24 a 22:00 UTC au 24 a 23:59 UTC
Vent : Variable pour 3 KT (6 km/h)

Devenant :

Prévision : Valide du 25 a 10:00 UTC au 25 a 12:00 UTC
Vent : 270° pour 10 KT (19 km/h)
WEBCAM POUR GENAS

Réglementation

Voler en sécurité

CARTES AERONAUTIQUE 1/500.000
CARTES VAC (LFLL)
SUP AIP




Chargement des AIP...
NOTAM (GENAS + Terrain à proximité / FIR )




Chargement des NOTAMS...
CONTACT PREFECTURE 69


Avertissement : Les données mises à disposition sont indicatives. Oxygène Drone ne pourra être tenu responsable de dégâts causés aux biens et aux personnes.